createdAt,value
2023-05-15T00:00:45.297Z,20.10
2023-05-15T00:03:12.266Z,17.75
2023-05-15T00:05:39.387Z,21.92
2023-05-15T00:08:06.021Z,21.17
2023-05-15T00:10:32.430Z,19.42
2023-05-15T00:12:58.816Z,18.63
2023-05-15T00:15:25.687Z,17.73
2023-05-15T00:17:52.361Z,17.55
2023-05-15T00:20:18.954Z,21.33
2023-05-15T00:22:45.503Z,22.02
2023-05-15T00:25:11.881Z,19.23
2023-05-15T00:27:38.295Z,19.55
2023-05-15T00:30:05.750Z,22.50
2023-05-15T00:32:32.693Z,22.52
2023-05-15T00:34:59.208Z,19.75
2023-05-15T00:37:25.801Z,19.02
2023-05-15T00:39:52.236Z,21.30
2023-05-15T00:42:19.281Z,18.00
2023-05-15T00:44:47.216Z,21.42
2023-05-15T00:47:14.248Z,22.63
2023-05-15T00:49:41.562Z,20.10
2023-05-15T00:52:08.552Z,19.27
2023-05-15T00:54:35.422Z,20.05
2023-05-15T00:57:05.796Z,20.35
2023-05-15T00:59:32.674Z,20.13
2023-05-15T01:01:59.236Z,24.23
2023-05-15T01:04:25.824Z,23.08
2023-05-15T01:06:55.113Z,20.92
2023-05-15T01:09:24.736Z,23.52
2023-05-15T01:11:54.443Z,20.02
2023-05-15T01:14:21.056Z,22.10
2023-05-15T01:16:48.012Z,24.27
2023-05-15T01:19:15.001Z,20.67
2023-05-15T01:22:20.766Z,21.25
2023-05-15T01:25:06.202Z,22.10
2023-05-15T01:27:48.951Z,24.77
2023-05-15T01:30:15.318Z,19.30
2023-05-15T01:32:54.368Z,20.55
2023-05-15T01:35:45.166Z,21.65
2023-05-15T01:38:34.437Z,22.98
2023-05-15T01:41:24.048Z,21.63
2023-05-15T01:44:08.370Z,24.52
2023-05-15T01:46:39.265Z,20.70
2023-05-15T01:49:10.796Z,24.08
2023-05-15T01:51:39.234Z,22.42
2023-05-15T01:54:08.836Z,26.65
2023-05-15T01:56:36.469Z,22.33
2023-05-15T01:59:05.335Z,25.08
2023-05-15T02:01:32.886Z,19.73
2023-05-15T02:04:01.490Z,21.88
2023-05-15T02:06:31.475Z,19.95
2023-05-15T02:08:59.302Z,25.55
2023-05-15T02:11:25.862Z,20.40
2023-05-15T02:13:54.724Z,19.13
2023-05-15T02:16:21.491Z,19.50
2023-05-15T02:18:48.841Z,22.15
2023-05-15T02:21:15.970Z,22.48
2023-05-15T02:23:42.495Z,19.98
2023-05-15T02:26:30.763Z,23.33
2023-05-15T02:29:25.713Z,22.23
2023-05-15T02:32:17.306Z,25.95
2023-05-15T02:34:58.732Z,21.50
2023-05-15T02:37:28.750Z,23.45
2023-05-15T02:39:59.803Z,24.95
2023-05-15T02:42:30.949Z,24.55
2023-05-15T02:44:58.264Z,21.95
2023-05-15T02:47:25.426Z,23.65
2023-05-15T02:49:52.881Z,21.67
2023-05-15T02:52:19.882Z,25.20
2023-05-15T02:54:46.323Z,22.55
2023-05-15T02:57:13.134Z,21.52
2023-05-15T02:59:39.605Z,25.92
2023-05-15T03:02:06.056Z,23.63
2023-05-15T03:04:32.702Z,22.88
2023-05-15T03:06:59.139Z,22.42
2023-05-15T03:09:25.617Z,24.85
2023-05-15T03:11:52.112Z,21.30
2023-05-15T03:14:18.672Z,25.13
2023-05-15T03:16:45.498Z,24.80
2023-05-15T03:19:12.051Z,26.42
2023-05-15T03:21:38.537Z,22.40
2023-05-15T03:24:05.262Z,24.38
2023-05-15T03:26:31.703Z,22.92
2023-05-15T03:28:58.508Z,25.30
2023-05-15T03:31:25.135Z,21.40
2023-05-15T03:33:51.679Z,24.70
2023-05-15T03:36:18.073Z,26.35
2023-05-15T03:38:44.835Z,27.80
2023-05-15T03:41:11.254Z,25.13
2023-05-15T03:43:37.712Z,26.27
2023-05-15T03:46:04.865Z,26.23
2023-05-15T03:48:31.312Z,24.00
2023-05-15T03:50:57.838Z,28.92
2023-05-15T03:53:24.879Z,28.25
2023-05-15T03:55:52.545Z,26.05
2023-05-15T03:58:19.122Z,28.08
2023-05-15T04:00:45.770Z,28.20
2023-05-15T04:03:12.728Z,26.00
2023-05-15T04:05:39.393Z,32.25
2023-05-15T04:08:06.037Z,26.00
2023-05-15T04:10:33.625Z,21.77
2023-05-15T04:13:00.160Z,22.35
2023-05-15T04:15:29.155Z,27.85
2023-05-15T04:17:55.867Z,28.05
2023-05-15T04:20:24.116Z,32.45
2023-05-15T04:22:52.035Z,32.38
2023-05-15T04:25:20.079Z,28.75
2023-05-15T04:27:46.955Z,27.67
2023-05-15T04:30:13.996Z,31.40
2023-05-15T04:32:41.103Z,27.52
2023-05-15T04:35:10.449Z,27.63
2023-05-15T04:37:40.501Z,27.45
2023-05-15T04:40:08.330Z,24.25
2023-05-15T04:42:36.784Z,26.58
2023-05-15T04:45:06.092Z,24.27
2023-05-15T04:47:32.557Z,28.67
2023-05-15T04:49:59.035Z,27.08
2023-05-15T04:52:25.434Z,26.17
2023-05-15T04:54:52.958Z,28.05
2023-05-15T04:57:19.446Z,29.60
2023-05-15T04:59:45.842Z,26.40
2023-05-15T05:02:12.282Z,28.55
2023-05-15T05:04:38.774Z,23.80
2023-05-15T05:07:05.819Z,26.40
2023-05-15T05:09:32.262Z,26.38
2023-05-15T05:11:59.885Z,30.10
2023-05-15T05:14:26.696Z,26.92
2023-05-15T05:16:53.085Z,25.80
2023-05-15T05:19:19.667Z,27.48
2023-05-15T05:21:46.073Z,28.75
2023-05-15T05:24:12.434Z,24.13
2023-05-15T05:26:39.121Z,28.00
2023-05-15T05:29:05.591Z,24.77
2023-05-15T05:31:32.095Z,24.20
2023-05-15T05:33:58.498Z,26.33
2023-05-15T05:36:24.881Z,22.10
2023-05-15T05:38:51.339Z,27.35
2023-05-15T05:41:17.724Z,26.50
2023-05-15T05:43:44.268Z,24.58
2023-05-15T05:46:10.990Z,25.98
2023-05-15T05:48:37.407Z,29.45
2023-05-15T05:51:04.018Z,32.72
2023-05-15T05:53:30.531Z,25.65
2023-05-15T05:55:57.167Z,23.42
2023-05-15T05:58:25.956Z,24.20
2023-05-15T06:00:53.537Z,24.17
2023-05-15T06:03:20.812Z,24.20
2023-05-15T06:05:48.484Z,26.50
2023-05-15T06:08:15.123Z,24.50
2023-05-15T06:10:42.288Z,23.02
2023-05-15T06:13:08.823Z,26.75
2023-05-15T06:15:35.612Z,23.58
2023-05-15T06:18:02.270Z,26.92
2023-05-15T06:20:28.882Z,23.52
2023-05-15T06:22:55.325Z,27.65
2023-05-15T06:25:21.864Z,30.67
2023-05-15T06:27:48.233Z,28.17
2023-05-15T06:30:15.031Z,22.58
2023-05-15T06:32:41.914Z,27.90
2023-05-15T06:35:09.878Z,28.13
2023-05-15T06:37:36.598Z,27.27
2023-05-15T06:40:06.465Z,24.95
2023-05-15T06:42:33.130Z,29.80
2023-05-15T06:45:00.580Z,24.13
2023-05-15T06:47:27.127Z,24.85
2023-05-15T06:49:54.670Z,26.27
2023-05-15T06:52:21.156Z,25.90
2023-05-15T06:54:48.306Z,29.98
2023-05-15T06:57:15.019Z,24.42
2023-05-15T06:59:41.411Z,28.73
2023-05-15T07:02:07.832Z,24.73
2023-05-15T07:04:34.336Z,24.42
2023-05-15T07:07:00.895Z,30.98
2023-05-15T07:09:27.283Z,26.70
2023-05-15T07:11:53.671Z,26.42
2023-05-15T07:14:20.189Z,25.98
2023-05-15T07:16:47.191Z,25.02
2023-05-15T07:19:13.798Z,21.10
2023-05-15T07:21:40.431Z,22.77
2023-05-15T07:24:07.240Z,26.00
2023-05-15T07:26:40.714Z,24.52
2023-05-15T07:29:13.494Z,19.98
2023-05-15T07:31:40.956Z,26.17
2023-05-15T07:34:07.521Z,22.55
2023-05-15T07:36:34.635Z,23.48
2023-05-15T07:39:01.009Z,21.73
2023-05-15T07:41:27.647Z,26.73
2023-05-15T07:43:54.022Z,24.60
2023-05-15T07:46:20.581Z,22.10
2023-05-15T07:48:47.007Z,21.02
2023-05-15T07:51:13.770Z,23.20
2023-05-15T07:53:40.171Z,25.98
2023-05-15T07:56:06.808Z,25.50
2023-05-15T07:58:35.422Z,21.40
2023-05-15T08:01:01.866Z,21.05
2023-05-15T08:03:28.487Z,20.38
2023-05-15T08:05:54.937Z,21.55
2023-05-15T08:08:21.497Z,25.27
2023-05-15T08:10:48.353Z,27.38
2023-05-15T08:13:14.724Z,22.95
2023-05-15T08:15:41.154Z,25.80
2023-05-15T08:18:11.526Z,23.05
2023-05-15T08:20:38.998Z,18.30
2023-05-15T08:23:05.517Z,23.63
2023-05-15T08:25:32.106Z,21.05
2023-05-15T08:27:58.491Z,26.42
2023-05-15T08:30:25.037Z,19.88
2023-05-15T08:32:51.497Z,22.65
2023-05-15T08:35:18.451Z,21.65
2023-05-15T08:37:44.902Z,20.13
2023-05-15T08:40:12.133Z,18.05
2023-05-15T08:42:55.432Z,23.48
2023-05-15T08:45:22.569Z,18.58
2023-05-15T08:47:49.460Z,15.23
2023-05-15T08:50:17.199Z,16.02
2023-05-15T08:52:48.484Z,18.67
2023-05-15T08:55:15.684Z,18.30
2023-05-15T08:57:43.853Z,19.38
2023-05-15T09:00:14.812Z,18.27
2023-05-15T09:02:42.680Z,17.08
2023-05-15T09:05:10.226Z,18.73
2023-05-15T09:07:38.966Z,15.90
2023-05-15T09:10:06.722Z,18.65
2023-05-15T09:12:34.686Z,17.55
2023-05-15T09:15:17.517Z,18.20
2023-05-15T09:17:45.376Z,18.50
2023-05-15T09:20:35.314Z,18.08
2023-05-15T09:23:04.731Z,17.05
2023-05-15T09:25:38.739Z,14.60
2023-05-15T09:28:06.711Z,19.20
2023-05-15T09:30:34.675Z,17.23
2023-05-15T09:33:04.294Z,14.85
2023-05-15T09:35:34.999Z,17.02
2023-05-15T09:38:02.420Z,15.65
2023-05-15T09:40:31.023Z,15.27
2023-05-15T09:42:58.609Z,18.85
2023-05-15T09:45:27.296Z,14.40
2023-05-15T09:47:54.241Z,17.35
2023-05-15T09:50:23.088Z,15.57
2023-05-15T09:52:51.588Z,13.10
2023-05-15T09:55:19.896Z,14.73
2023-05-15T09:58:06.666Z,14.27
2023-05-15T10:00:35.224Z,12.05
2023-05-15T10:03:03.572Z,13.15
2023-05-15T10:05:42.352Z,11.60
2023-05-15T10:08:10.000Z,14.23
2023-05-15T10:10:36.469Z,12.10
2023-05-15T10:13:04.606Z,13.82
2023-05-15T10:15:31.689Z,11.80
2023-05-15T10:17:59.570Z,9.88
2023-05-15T10:20:26.790Z,13.40
2023-05-15T10:22:55.869Z,15.10
2023-05-15T10:25:44.001Z,16.20
2023-05-15T10:28:11.772Z,16.70
2023-05-15T10:30:39.125Z,15.75
2023-05-15T10:33:07.155Z,15.27
2023-05-15T10:35:39.442Z,16.40
2023-05-15T10:38:06.394Z,17.85
2023-05-15T10:40:36.495Z,13.32
2023-05-15T10:43:03.615Z,11.80
2023-05-15T10:45:31.861Z,9.23
2023-05-15T10:47:59.488Z,14.43
2023-05-15T10:50:26.917Z,11.60
2023-05-15T10:52:55.205Z,12.35
2023-05-15T10:55:22.788Z,10.63
2023-05-15T10:57:49.853Z,11.90
2023-05-15T11:00:22.506Z,9.20
2023-05-15T11:02:50.930Z,16.52
2023-05-15T11:05:17.490Z,17.40
2023-05-15T11:07:44.155Z,13.75
2023-05-15T11:10:28.731Z,13.95
2023-05-15T11:12:56.898Z,14.27
2023-05-15T11:15:23.393Z,13.60
2023-05-15T11:18:05.938Z,12.05
2023-05-15T11:20:40.274Z,13.40
2023-05-15T11:23:07.377Z,12.35
2023-05-15T11:25:35.404Z,12.05
2023-05-15T11:28:03.424Z,17.48
2023-05-15T11:30:40.332Z,11.85
2023-05-15T11:33:10.303Z,10.38
2023-05-15T11:35:43.204Z,8.27
2023-05-15T11:38:09.625Z,8.93
2023-05-15T11:40:49.083Z,7.97
2023-05-15T11:43:27.409Z,6.90
2023-05-15T11:46:08.623Z,7.05
2023-05-15T11:48:41.536Z,9.00
2023-05-15T11:51:24.949Z,7.68
2023-05-15T11:53:54.449Z,7.40
2023-05-15T11:56:23.185Z,8.18
2023-05-15T11:58:55.617Z,7.93
2023-05-15T12:01:22.081Z,6.75
2023-05-15T12:03:49.693Z,7.55
2023-05-15T12:06:16.903Z,6.95
2023-05-15T12:08:43.801Z,8.38
2023-05-15T12:11:10.949Z,7.38
2023-05-15T12:13:37.446Z,8.85
2023-05-15T12:16:04.784Z,10.93
2023-05-15T12:18:32.917Z,8.43
2023-05-15T12:21:00.089Z,9.38
2023-05-15T12:23:28.424Z,8.77
2023-05-15T12:26:00.888Z,11.27
2023-05-15T12:28:28.954Z,12.43
2023-05-15T12:30:55.837Z,10.02
2023-05-15T12:33:23.311Z,11.60
2023-05-15T12:35:54.369Z,8.77
2023-05-15T12:38:22.669Z,8.90
2023-05-15T12:40:53.445Z,10.27
2023-05-15T12:43:20.961Z,9.30
2023-05-15T12:45:52.377Z,10.90
2023-05-15T12:48:18.832Z,11.30
2023-05-15T12:50:45.390Z,15.15
2023-05-15T12:53:15.349Z,16.50
2023-05-15T12:55:44.404Z,11.18
2023-05-15T12:58:12.700Z,9.70
2023-05-15T13:00:41.639Z,10.57
2023-05-15T13:03:10.520Z,18.85
2023-05-15T13:05:38.160Z,11.57
2023-05-15T13:08:07.286Z,15.73
2023-05-15T13:10:36.276Z,9.38
2023-05-15T13:13:02.802Z,9.75
2023-05-15T13:15:31.718Z,10.70
2023-05-15T13:18:01.989Z,12.32
2023-05-15T13:20:32.796Z,10.07
2023-05-15T13:23:01.197Z,11.30
2023-05-15T13:25:29.233Z,8.43
2023-05-15T13:27:59.441Z,8.57
2023-05-15T13:30:26.249Z,10.88
2023-05-15T13:32:55.454Z,7.97
2023-05-15T13:35:22.407Z,8.88
2023-05-15T13:37:48.856Z,8.82
2023-05-15T13:40:15.442Z,6.43
2023-05-15T13:42:42.961Z,10.13
2023-05-15T13:45:11.984Z,8.95
2023-05-15T13:47:41.686Z,10.07
2023-05-15T13:50:12.693Z,10.27
2023-05-15T13:52:40.393Z,7.18
2023-05-15T13:55:09.696Z,11.38
2023-05-15T13:57:40.894Z,12.27
2023-05-15T14:00:12.170Z,11.95
2023-05-15T14:02:43.069Z,9.80
2023-05-15T14:05:11.174Z,9.35
2023-05-15T14:07:37.917Z,7.72
2023-05-15T14:10:04.909Z,16.23
2023-05-15T14:12:32.284Z,16.05
2023-05-15T14:14:58.916Z,8.25
2023-05-15T14:17:25.459Z,18.88
2023-05-15T14:19:52.087Z,10.55
2023-05-15T14:22:18.697Z,9.93
2023-05-15T14:24:45.248Z,10.82
2023-05-15T14:27:11.741Z,10.18
2023-05-15T14:29:39.331Z,11.30
2023-05-15T14:32:06.539Z,11.43
2023-05-15T14:34:33.819Z,10.82
2023-05-15T14:37:00.236Z,11.98
2023-05-15T14:39:26.973Z,15.45
2023-05-15T14:41:53.474Z,16.33
2023-05-15T14:44:19.854Z,9.30
2023-05-15T14:46:46.412Z,10.52
2023-05-15T14:49:12.908Z,12.57
2023-05-15T14:51:39.759Z,12.20
2023-05-15T14:54:06.240Z,12.07
2023-05-15T14:56:32.793Z,15.40
2023-05-15T14:58:59.254Z,13.23
2023-05-15T15:01:25.791Z,13.23
2023-05-15T15:03:52.752Z,17.42
2023-05-15T15:06:19.440Z,22.42
2023-05-15T15:08:45.835Z,15.98
2023-05-15T15:11:12.237Z,24.85
2023-05-15T15:13:38.602Z,26.98
2023-05-15T15:16:05.512Z,21.70
2023-05-15T15:18:32.028Z,23.13
2023-05-15T15:20:58.614Z,20.33
2023-05-15T15:23:25.351Z,18.00
2023-05-15T15:25:52.111Z,20.52
2023-05-15T15:28:18.518Z,21.20
2023-05-15T15:30:44.930Z,20.70
2023-05-15T15:33:11.488Z,19.17
2023-05-15T15:35:37.945Z,19.85
2023-05-15T15:38:05.296Z,17.83
2023-05-15T15:40:31.746Z,17.02
2023-05-15T15:42:58.143Z,20.42
2023-05-15T15:45:24.719Z,25.00
2023-05-15T15:47:51.229Z,23.27
2023-05-15T15:50:17.751Z,17.70
2023-05-15T15:52:44.169Z,16.35
2023-05-15T15:55:10.791Z,15.52
2023-05-15T15:57:37.587Z,21.42
2023-05-15T16:00:06.818Z,15.18
2023-05-15T16:02:33.484Z,15.40
2023-05-15T16:05:00.392Z,18.70
2023-05-15T16:07:26.810Z,15.57
2023-05-15T16:10:00.373Z,15.13
2023-05-15T16:12:30.483Z,14.30
2023-05-15T16:15:00.186Z,14.98
2023-05-15T16:17:30.727Z,16.92
2023-05-15T16:19:57.131Z,16.52
2023-05-15T16:22:23.561Z,16.27
2023-05-15T16:24:50.398Z,16.65
2023-05-15T16:27:16.775Z,24.83
2023-05-15T16:29:43.172Z,22.80
2023-05-15T16:32:10.018Z,21.58
2023-05-15T16:34:36.525Z,21.98
2023-05-15T16:37:03.548Z,20.85
2023-05-15T16:39:32.141Z,21.27
2023-05-15T16:41:58.602Z,26.13
2023-05-15T16:44:25.074Z,24.75
2023-05-15T16:46:51.569Z,20.98
2023-05-15T16:49:18.182Z,22.88
2023-05-15T16:51:45.049Z,18.60
2023-05-15T16:54:11.831Z,16.52
2023-05-15T16:56:38.729Z,17.02
2023-05-15T16:59:05.452Z,15.20
2023-05-15T17:01:32.035Z,14.95
2023-05-15T17:03:59.035Z,17.13
2023-05-15T17:06:25.478Z,13.63
2023-05-15T17:08:51.842Z,13.32
2023-05-15T17:11:18.305Z,12.70
2023-05-15T17:13:44.840Z,13.70
2023-05-15T17:16:11.323Z,12.57
2023-05-15T17:18:39.739Z,15.75
2023-05-15T17:21:06.422Z,14.05
2023-05-15T17:23:32.967Z,13.35
2023-05-15T17:25:59.489Z,15.60
2023-05-15T17:28:26.195Z,13.90
2023-05-15T17:30:52.630Z,16.15
2023-05-15T17:33:19.013Z,13.65
2023-05-15T17:35:45.644Z,14.75
2023-05-15T17:38:12.055Z,16.63
2023-05-15T17:40:38.556Z,14.43
2023-05-15T17:43:05.041Z,13.27
2023-05-15T17:45:32.148Z,13.25
2023-05-15T17:48:03.488Z,12.57
2023-05-15T17:50:30.287Z,14.40
2023-05-15T17:52:56.812Z,15.43
2023-05-15T17:55:23.255Z,14.32
2023-05-15T17:57:50.369Z,13.32
2023-05-15T18:00:17.538Z,12.73
2023-05-15T18:02:43.988Z,12.85
2023-05-15T18:05:10.520Z,14.18
2023-05-15T18:07:37.081Z,12.07
2023-05-15T18:10:03.808Z,13.00
2023-05-15T18:12:30.188Z,12.77
2023-05-15T18:14:57.236Z,10.68
2023-05-15T18:17:23.713Z,15.10
2023-05-15T18:19:50.202Z,14.05
2023-05-15T18:22:16.678Z,13.00
2023-05-15T18:24:43.109Z,14.40
2023-05-15T18:27:10.474Z,12.43
2023-05-15T18:29:36.864Z,11.00
2023-05-15T18:32:03.322Z,9.07
2023-05-15T18:34:29.734Z,12.70
2023-05-15T18:36:56.132Z,8.73
2023-05-15T18:39:22.664Z,9.27
2023-05-15T18:41:49.066Z,9.63
2023-05-15T18:44:15.603Z,8.98
2023-05-15T18:46:42.404Z,9.35
2023-05-15T18:49:09.239Z,11.02
2023-05-15T18:51:35.623Z,8.13
2023-05-15T18:54:02.593Z,10.70
2023-05-15T18:56:29.068Z,9.75
2023-05-15T18:58:55.534Z,9.00
2023-05-15T19:01:22.151Z,10.02
2023-05-15T19:03:48.673Z,7.20
2023-05-15T19:06:19.785Z,6.35
2023-05-15T19:08:47.974Z,9.13
2023-05-15T19:11:15.991Z,8.90
2023-05-15T19:13:42.426Z,6.43
2023-05-15T19:16:10.123Z,8.38
2023-05-15T19:18:36.581Z,8.80
2023-05-15T19:21:04.630Z,6.28
2023-05-15T19:23:31.024Z,7.68
2023-05-15T19:25:57.494Z,7.18
2023-05-15T19:28:23.948Z,8.75
2023-05-15T19:30:50.838Z,7.38
2023-05-15T19:33:17.789Z,8.20
2023-05-15T19:35:44.557Z,6.28
2023-05-15T19:38:11.338Z,7.43
2023-05-15T19:40:37.741Z,8.55
2023-05-15T19:43:04.548Z,6.78
2023-05-15T19:45:30.971Z,7.75
2023-05-15T19:47:58.840Z,5.50
2023-05-15T19:50:25.714Z,4.97
2023-05-15T19:52:52.199Z,8.93
2023-05-15T19:55:18.575Z,7.82
2023-05-15T19:57:45.121Z,6.93
2023-05-15T20:00:12.393Z,5.75
2023-05-15T20:02:41.108Z,8.52
2023-05-15T20:05:08.608Z,6.47
2023-05-15T20:07:35.506Z,11.20
2023-05-15T20:10:01.958Z,6.40
2023-05-15T20:12:28.313Z,9.43
2023-05-15T20:14:54.736Z,7.88
2023-05-15T20:17:21.176Z,7.95
2023-05-15T20:19:49.329Z,6.07
2023-05-15T20:22:17.177Z,7.97
2023-05-15T20:24:44.155Z,7.05
2023-05-15T20:27:11.382Z,8.20
2023-05-15T20:29:38.756Z,7.22
2023-05-15T20:32:05.625Z,9.30
2023-05-15T20:34:32.938Z,10.63
2023-05-15T20:36:59.319Z,11.07
2023-05-15T20:39:25.965Z,9.35
2023-05-15T20:41:52.408Z,8.95
2023-05-15T20:44:18.807Z,10.07
2023-05-15T20:46:45.470Z,10.55
2023-05-15T20:49:11.916Z,9.25
2023-05-15T20:51:38.286Z,8.68
2023-05-15T20:54:04.742Z,8.52
2023-05-15T20:56:31.140Z,8.80
2023-05-15T20:58:59.618Z,12.00
2023-05-15T21:01:26.438Z,10.90
2023-05-15T21:03:52.949Z,9.52
2023-05-15T21:06:20.124Z,9.73
2023-05-15T21:08:46.494Z,10.32
2023-05-15T21:11:13.360Z,11.93
2023-05-15T21:13:39.795Z,11.15
2023-05-15T21:16:06.457Z,9.35
2023-05-15T21:18:32.959Z,9.55
2023-05-15T21:20:59.358Z,11.35
2023-05-15T21:23:25.715Z,11.30
2023-05-15T21:25:53.064Z,10.98
2023-05-15T21:28:20.250Z,11.50
2023-05-15T21:30:46.682Z,11.65
2023-05-15T21:33:13.099Z,10.35
2023-05-15T21:35:39.714Z,8.60
2023-05-15T21:38:06.582Z,11.77
2023-05-15T21:40:32.989Z,12.20
2023-05-15T21:42:59.361Z,9.60
2023-05-15T21:45:26.231Z,10.75
2023-05-15T21:47:53.118Z,9.18
2023-05-15T21:50:19.596Z,8.80
2023-05-15T21:52:45.974Z,16.65
2023-05-15T21:55:12.418Z,12.52
2023-05-15T21:57:38.788Z,8.43
2023-05-15T22:00:07.353Z,7.22
2023-05-15T22:02:35.004Z,7.00
2023-05-15T22:05:02.072Z,10.20
2023-05-15T22:07:28.466Z,9.20
2023-05-15T22:09:54.855Z,7.78
2023-05-15T22:12:21.522Z,6.75
2023-05-15T22:14:58.330Z,6.47
2023-05-15T22:17:27.352Z,12.73
2023-05-15T22:19:54.018Z,9.30
2023-05-15T22:22:20.765Z,11.00
2023-05-15T22:24:47.772Z,7.35
2023-05-15T22:27:16.476Z,6.22
2023-05-15T22:29:42.882Z,7.63
2023-05-15T22:32:09.415Z,8.35
2023-05-15T22:34:35.992Z,6.47
2023-05-15T22:37:02.479Z,11.18
2023-05-15T22:39:28.890Z,8.25
2023-05-15T22:41:55.725Z,8.23
2023-05-15T22:44:22.848Z,9.45
2023-05-15T22:46:49.646Z,7.78
2023-05-15T22:49:19.200Z,8.95
2023-05-15T22:51:45.690Z,9.70
2023-05-15T22:54:12.604Z,11.55
2023-05-15T22:56:38.996Z,7.60
2023-05-15T22:59:05.532Z,7.70
2023-05-15T23:01:32.123Z,5.82
2023-05-15T23:03:58.634Z,9.68
2023-05-15T23:06:25.342Z,7.82
2023-05-15T23:08:51.788Z,10.93
2023-05-15T23:11:18.297Z,8.90
2023-05-15T23:13:44.746Z,10.18
2023-05-15T23:16:11.585Z,8.70
2023-05-15T23:18:38.053Z,11.02
2023-05-15T23:21:04.856Z,9.68
2023-05-15T23:23:31.392Z,8.20
2023-05-15T23:25:57.811Z,9.13
2023-05-15T23:28:24.198Z,9.38
2023-05-15T23:30:54.836Z,10.07
2023-05-15T23:33:22.233Z,8.50
2023-05-15T23:35:48.614Z,9.50
2023-05-15T23:38:15.071Z,11.95
2023-05-15T23:40:41.608Z,9.20
2023-05-15T23:43:08.299Z,9.98
2023-05-15T23:45:35.137Z,8.25
2023-05-15T23:48:01.594Z,6.55
2023-05-15T23:50:28.532Z,6.25
2023-05-15T23:52:55.137Z,5.38
2023-05-15T23:55:21.535Z,4.30
2023-05-15T23:57:48.271Z,5.80
